Latest Weather Observations for Jabiru

IDD60801

Issued at 4:01 pm CST Saturday 10 December 2016 (issued every 30 minutes, with the page automatically refreshed every 10 minutes)

About weather observations | Map of weather stations | Latest weather observations for NT | Other Formats
Station Details ID: 014198 Name: JABIRU AIRPORT Lat: -12.66 Lon: 132.89 Height: 26.5 m
Data from the previous 72 hours. | See also: Recent months at Jabiru
Date/Time
CST
Temp
°C
App
Temp
°C
Dew
Point
°C
Rel
Hum
%
Delta-T
°C
Wind Press
QNH
hPa
Press
MSL
hPa
Rain since
9am
mm
Dir  Spd
km/h
Gust
km/h
Spd
kts
Gust
kts
10/04:00pm 36.8 37.9 19.7 36 11.4 NE 13 19 7 10 1004.9 1004.7 0.0
10/03:30pm 38.3 40.5 19.2 32 12.8 SE 6 13 3 7 1004.9 1004.7 0.0
10/03:00pm 37.9 38.8 18.3 31 12.9 SSE 11 19 6 10 1005.6 1005.4 0.0
10/02:30pm 37.8 39.3 19.7 34 12.1 E 11 17 6 9 1006.0 1005.8 0.0
10/02:00pm 37.3 38.6 19.3 35 12.0 SE 11 17 6 9 1006.6 1006.4 0.0
10/01:30pm 36.9 38.6 20.2 37 11.2 S 11 22 6 12 1007.3 1007.1 0.0
10/01:00pm 36.4 38.5 20.2 38 10.9 SE 9 17 5 9 1007.9 1007.7 0.0
10/12:30pm 35.7 38.3 21.2 43 9.9 SSE 9 17 5 9 1008.6 1008.3 0.0
10/12:00pm 34.9 38.1 21.6 46 9.1 SSE 7 15 4 8 1009.1 1008.8 0.0
10/11:30am 35.0 38.0 22.0 46 8.9 SSE 9 19 5 10 1009.6 1009.3 0.0
10/11:00am 33.9 37.1 22.3 50 8.0 W 9 17 5 9 1009.7 1009.4 0.0
10/10:30am 32.8 35.4 22.0 53 7.4 WNW 11 17 6 9 1009.9 1009.6 0.0
10/10:00am 31.8 35.6 22.8 59 6.2 SW 7 11 4 6 1010.3 1010.0 0.0
10/09:30am 31.7 35.3 23.0 60 6.0 NNW 9 13 5 7 1010.5 1010.2 0.0
10/09:00am 31.4 35.5 23.0 61 5.8 NNW 6 9 3 5 1010.5 1010.2 0.0
10/08:30am 30.7 34.7 22.8 62 5.4 SE 6 9 3 5 1010.6 1010.3 0.0
10/08:00am 29.6 33.8 23.1 68 4.5 SW 6 7 3 4 1010.5 1010.2 0.0
10/07:30am 27.8 31.6 22.7 74 3.5 SW 7 11 4 6 1010.5 1010.2 0.0
10/07:00am 26.2 29.3 22.1 78 2.7 SSW 9 13 5 7 1010.0 1009.7 0.0
10/06:30am 25.4 29.0 22.3 83 2.1 SSW 7 11 4 6 1009.4 1009.1 0.0
10/06:00am 25.3 28.4 22.2 83 2.1 SW 9 11 5 6 1008.8 1008.5 0.0
10/05:30am 25.5 28.5 22.0 81 2.3 SW 9 9 5 5 1008.5 1008.2 0.0
10/05:00am 25.9 29.5 22.4 81 2.4 SW 7 7 4 4 1008.3 1008.0 0.0
10/04:30am 26.0 30.9 22.3 80 2.5 CALM 0 0 0 0 1008.2 1007.9 0.0
10/04:00am 26.1 31.0 22.4 80 2.5 CALM 0 0 0 0 1007.9 1007.7 0.0
10/03:30am 26.6 31.2 21.8 75 3.2 CALM 0 0 0 0 1007.8 1007.6 0.0
10/03:00am 27.0 31.7 22.0 74 3.4 CALM 0 0 0 0 1007.8 1007.6 0.0
10/02:30am 26.7 30.8 22.3 77 3.0 SW 4 7 2 4 1008.1 1007.8 0.0
10/02:00am 27.2 31.0 22.4 75 3.2 WSW 6 7 3 4 1008.4 1008.1 0.0
10/01:30am 27.1 31.6 22.3 75 3.2 SW 2 7 1 4 1008.4 1008.1 0.0
10/01:00am 28.3 33.3 22.5 71 3.9 CALM 0 0 0 0 1008.6 1008.3 0.0
10/12:30am 28.3 33.2 22.3 70 4.1 CALM 0 4 0 2 1008.7 1008.4 0.0
10/12:00am 28.6 32.2 22.1 68 4.4 NNE 6 7 3 4 1008.7 1008.4 0.0
 
Date/Time
CST
Temp
°C
App
Temp
°C
Dew
Point
°C
Rel
Hum
%
Delta-T
°C
Wind Press
QNH
hPa
Press
MSL
hPa
Rain since
9am
mm
Dir  Spd
km/h
Gust
km/h
Spd
kts
Gust
kts
09/11:30pm 28.9 32.4 22.2 67 4.5 NE 7 9 4 5 1008.8 1008.5 0.0
09/11:00pm 29.1 32.0 21.8 64 4.9 NE 9 13 5 7 1008.9 1008.6 0.0
09/10:30pm 29.5 31.8 21.4 61 5.4 N 11 15 6 8 1008.9 1008.6 0.0
09/10:00pm 29.7 31.3 20.0 56 6.4 N 11 17 6 9 1008.8 1008.5 0.0
09/09:30pm 30.1 31.6 19.8 54 6.8 NNW 11 15 6 8 1008.5 1008.2 0.0
09/09:00pm 30.7 32.3 20.0 52 7.1 NNW 11 17 6 9 1008.2 1007.9 0.0
09/08:30pm 31.2 32.8 19.9 51 7.5 NW 11 15 6 8 1007.7 1007.5 0.0
09/08:00pm 31.9 32.9 19.5 47 8.2 NW 13 19 7 10 1007.2 1007.0 0.0
09/07:30pm 32.5 32.9 19.0 44 8.8 N 15 20 8 11 1006.7 1006.5 0.0
09/07:00pm 33.4 32.9 19.1 42 9.4 N 20 28 11 15 1006.3 1006.1 0.0
09/06:30pm 35.0 35.6 16.8 34 11.7 N 9 13 5 7 1005.6 1005.4 0.0
09/06:00pm 35.9 36.6 17.1 32 12.1 NNE 9 15 5 8 1005.1 1004.9 0.0
09/05:30pm 36.7 36.3 16.3 30 13.1 NE 13 22 7 12 1004.7 1004.5 0.0
09/05:00pm 37.0 37.1 16.5 29 13.1 NNE 11 19 6 10 1004.7 1004.5 0.0
09/04:30pm 37.0 37.0 17.1 31 12.9 NE 13 19 7 10 1004.8 1004.6 0.0
09/04:00pm 36.4 36.3 17.0 31 12.5 ENE 13 20 7 11 1005.0 1004.8 0.0
09/03:30pm 36.9 38.0 17.0 31 12.9 ENE 7 11 4 6 1005.2 1005.0 0.0
09/03:00pm 37.4 38.5 17.9 31 12.8 NW 9 13 5 7 1005.6 1005.4 0.0
09/02:30pm 35.9 37.0 18.0 34 11.7 N 9 17 5 9 1005.9 1005.7 0.0
09/02:00pm 36.4 37.3 18.5 35 11.8 NNW 11 22 6 12 1006.3 1006.1 0.0
09/01:30pm 35.4 36.5 18.0 35 11.3 NE 9 20 5 11 1006.7 1006.5 0.0
09/01:00pm 36.0 37.4 18.6 36 11.4 SE 9 13 5 7 1007.0 1006.8 0.0
09/12:30pm 35.1 36.7 19.9 41 10.2 WSW 11 19 6 10 1007.3 1007.1 0.0
09/12:00pm 34.7 37.4 20.6 43 9.5 S 7 11 4 6 1008.1 1007.8 0.0
09/11:30am 33.3 36.1 21.5 50 8.0 SSE 9 15 5 8 1008.5 1008.2 0.0
09/11:00am 32.7 35.1 20.9 49 7.9 SW 9 15 5 8 1008.7 1008.4 0.0
09/10:30am 33.1 36.8 22.2 52 7.5 SW 6 9 3 5 1008.9 1008.6 0.0
09/10:00am 32.1 35.2 22.2 56 6.7 NNW 9 13 5 7 1009.1 1008.8 0.0
09/09:30am 32.0 36.0 22.7 58 6.4 ESE 6 11 3 6 1009.2 1008.9 0.0
09/09:00am 31.1 34.5 22.7 61 5.8 NNE 9 15 5 8 1009.4 1009.1 0.0
09/08:30am 30.2 34.4 22.4 63 5.3 ESE 4 13 2 7 1009.3 1009.0 0.0
09/08:00am 29.4 34.2 22.9 68 4.4 NNE 2 7 1 4 1009.2 1008.9 0.0
09/07:30am 28.7 33.8 22.7 70 4.1 CALM 0 0 0 0 1009.0 1008.7 0.0
09/07:00am 28.0 33.5 23.4 76 3.2 CALM 0 0 0 0 1008.8 1008.5 0.0
09/06:30am 26.3 31.5 22.8 81 2.4 CALM 0 0 0 0 1008.3 1008.0 0.0
09/06:00am 26.5 31.6 22.6 79 2.6 CALM 0 0 0 0 1007.7 1007.5 0.0
09/05:30am 26.4 31.4 22.5 79 2.6 CALM 0 0 0 0 1007.6 1007.4 0.0
09/05:00am 26.7 31.9 22.8 79 2.6 CALM 0 0 0 0 1007.4 1007.2 0.0
09/04:30am 27.3 32.4 22.7 76 3.1 CALM 0 0 0 0 1007.3 1007.1 0.0
09/04:00am 27.4 31.4 22.8 76 3.1 ENE 6 7 3 4 1007.3 1007.1 0.0
09/03:30am 27.1 32.1 22.5 76 3.1 CALM 0 0 0 0 1007.4 1007.2 0.0
09/03:00am 27.0 31.8 22.2 75 3.2 CALM 0 0 0 0 1007.4 1007.2 0.0
09/02:30am 27.0 31.7 22.0 74 3.4 CALM 0 0 0 0 1007.5 1007.3 0.0
09/02:00am 27.1 31.1 22.1 74 3.4 SW 4 7 2 4 1007.6 1007.4 0.0
09/01:30am 27.7 31.4 22.2 72 3.7 WNW 6 7 3 4 1007.7 1007.5 0.0
09/01:00am 28.2 31.9 22.2 70 4.1 NNW 6 7 3 4 1007.6 1007.4 0.0
09/12:30am 28.6 32.1 21.9 67 4.5 NNW 6 7 3 4 1007.6 1007.4 0.0
09/12:00am 29.0 32.4 22.0 66 4.7 N 7 9 4 5 1007.5 1007.3 0.0
 
Date/Time
CST
Temp
°C
App
Temp
°C
Dew
Point
°C
Rel
Hum
%
Delta-T
°C
Wind Press
QNH
hPa
Press
MSL
hPa
Rain since
9am
mm
Dir  Spd
km/h
Gust
km/h
Spd
kts
Gust
kts
08/11:30pm 29.2 32.3 21.4 63 5.2 N 7 11 4 6 1007.7 1007.5 0.0
08/11:00pm 29.5 32.5 21.2 61 5.5 N 7 11 4 6 1007.7 1007.5 0.0
08/10:30pm 29.8 31.7 20.6 57 6.1 NNE 11 17 6 9 1007.6 1007.4 0.0
08/10:00pm 30.1 32.8 20.6 56 6.3 NNE 7 13 4 7 1007.3 1007.1 0.0
08/09:30pm 30.7 32.6 20.6 54 6.7 N 11 17 6 9 1007.0 1006.8 0.0
08/09:00pm 30.9 33.3 22.2 59 5.9 NNW 13 19 7 10 1006.6 1006.4 0.0
08/08:30pm 31.4 33.6 21.8 56 6.5 NNW 13 19 7 10 1005.9 1005.7 0.0
08/08:00pm 32.1 33.4 21.6 53 7.1 N 17 24 9 13 1005.3 1005.1 0.0
08/07:30pm 32.6 33.8 22.1 54 7.2 N 19 28 10 15 1004.9 1004.7 0.0
08/07:00pm 34.2 35.9 22.3 50 8.2 NNW 17 24 9 13 1004.3 1004.1 0.0
08/06:30pm 35.7 37.3 19.2 38 10.9 NNW 9 13 5 7 1003.8 1003.6 0.0
08/06:00pm 36.8 37.1 17.9 33 12.4 NNW 13 20 7 11 1003.4 1003.2 0.0
08/05:30pm 37.5 38.0 17.5 30 13.0 NW 11 15 6 8 1003.1 1002.9 0.0
08/05:00pm 38.1 38.8 18.0 30 13.2 NNW 11 15 6 8 1002.9 1002.7 0.0
08/04:30pm 38.1 37.9 15.8 26 14.2 NNE 11 22 6 12 1002.8 1002.6 0.0
08/04:00pm 38.0 38.2 15.7 26 14.2 E 9 15 5 8 1003.0 1002.8 0.0
08/03:30pm 37.4 37.1 16.4 29 13.5 NE 13 17 7 9 1003.1 1002.9 0.0
08/03:00pm 37.7 37.9 17.7 31 13.1 N 13 22 7 12 1003.5 1003.3 0.0
08/02:30pm 37.5 38.2 17.0 30 13.3 S 9 17 5 9 1003.9 1003.7 0.0
08/02:00pm 37.1 38.5 18.6 33 12.2 NW 9 15 5 8 1004.4 1004.2 0.0
08/01:30pm 37.0 39.3 19.9 36 11.5 SSE 7 13 4 7 1004.9 1004.7 0.0
08/01:00pm 35.6 36.8 19.1 38 10.9 WNW 11 20 6 11 1005.4 1005.2 0.0
08/12:30pm 35.8 37.9 20.1 40 10.5 N 9 15 5 8 1006.0 1005.8 0.0
08/12:00pm 34.5 37.5 20.1 43 9.6 SE 4 13 2 7 1006.5 1006.3 0.0
08/11:30am 34.4 37.1 21.4 46 8.8 NW 9 17 5 9 1007.0 1006.8 0.0
08/11:00am 33.5 36.5 22.0 51 7.8 WNW 9 15 5 8 1007.3 1007.1 0.0
08/10:30am 33.3 36.4 22.1 52 7.7 NNW 9 13 5 7 1007.8 1007.6 0.0
08/10:00am 33.0 35.5 22.4 53 7.3 NW 13 19 7 10 1008.1 1007.8 0.0
08/09:30am 32.1 35.2 22.8 58 6.4 NNE 11 19 6 10 1007.9 1007.7 0.0
08/09:00am 31.8 34.8 23.3 60 5.9 N 13 19 7 10 1007.7 1007.5 0.0
08/08:30am 30.7 34.2 23.6 66 4.9 NNE 11 15 6 8 1008.2 1007.9 0.0
08/08:00am 30.4 34.7 24.3 70 4.3 NE 9 11 5 6 1008.6 1008.3 0.0
08/07:30am 29.9 36.2 24.8 74 3.6 CALM 0 0 0 0 1008.7 1008.4 0.0
08/07:00am 28.1 34.2 24.5 81 2.5 CALM 0 0 0 0 1008.5 1008.2 0.0
08/06:30am 27.7 33.8 24.5 83 2.2 CALM 0 0 0 0 1008.1 1007.8 0.0
08/06:00am 27.3 32.5 24.2 83 2.1 SSW 4 6 2 3 1007.9 1007.7 0.0
08/05:30am 27.7 32.5 24.1 81 2.5 WNW 6 6 3 3 1007.5 1007.3 0.0
08/05:00am 27.9 32.4 23.9 79 2.8 NW 7 7 4 4 1007.3 1007.1 0.0
08/04:30am 28.1 32.7 24.1 79 2.8 WNW 7 9 4 5 1007.2 1007.0 0.0
08/04:00am 28.1 32.9 24.1 79 2.8 WSW 6 7 3 4 1006.8 1006.6 0.0
08/03:30am 28.7 34.4 23.8 75 3.4 CALM 0 0 0 0 1006.9 1006.7 0.0
08/03:00am 28.3 34.2 24.1 78 2.9 CALM 0 0 0 0 1007.0 1006.8 0.0
08/02:30am 28.5 34.0 23.4 74 3.5 CALM 0 0 0 0 1007.1 1006.9 0.0
08/02:00am 28.4 34.0 23.5 75 3.4 CALM 0 0 0 0 1007.3 1007.1 0.0
08/01:30am 28.6 33.1 23.7 75 3.4 NNE 6 7 3 4 1007.4 1007.2 0.0
08/01:00am 28.7 33.2 23.6 74 3.5 NNW 6 9 3 5 1007.6 1007.4 0.0
08/12:30am 29.1 33.4 23.3 71 4.0 NNW 6 7 3 4 1007.9 1007.7 0.0
08/12:00am 29.2 33.3 23.2 70 4.1 NNW 7 11 4 6 1008.1 1007.8 0.0
 
Date/Time
CST
Temp
°C
App
Temp
°C
Dew
Point
°C
Rel
Hum
%
Delta-T
°C
Wind Press
QNH
hPa
Press
MSL
hPa
Rain since
9am
mm
Dir  Spd
km/h
Gust
km/h
Spd
kts
Gust
kts
07/11:30pm 29.5 33.6 23.2 69 4.3 N 7 11 4 6 1008.2 1007.9 0.0
07/11:00pm 29.4 33.6 23.4 70 4.1 NNE 7 9 4 5 1008.3 1008.0 0.0
07/10:30pm 29.8 34.1 23.7 70 4.2 NNW 7 11 4 6 1008.1 1007.8 0.0
07/10:00pm 30.1 34.1 23.8 69 4.4 NNW 9 15 5 8 1008.1 1007.8 0.0
07/09:30pm 30.3 34.0 23.2 65 4.9 NNW 9 13 5 7 1007.8 1007.6 0.0
07/09:00pm 31.1 34.8 23.2 63 5.5 NW 9 11 5 6 1007.2 1007.0 0.0
07/08:30pm 31.4 34.7 23.2 61 5.7 NW 11 15 6 8 1006.8 1006.6 0.0
07/08:00pm 31.7 34.5 23.0 60 6.0 NNW 13 17 7 9 1006.3 1006.1 0.0
07/07:30pm 32.2 34.7 23.2 59 6.2 NNW 15 22 8 12 1005.7 1005.5 0.0
07/07:00pm 33.5 35.8 22.0 51 7.8 NNW 13 28 7 15 1005.2 1005.0 0.0
07/06:30pm 35.1 37.6 20.2 41 10.0 NNW 7 9 4 5 1004.8 1004.6 0.0
07/06:00pm 36.1 38.3 20.4 40 10.6 N 9 11 5 6 1004.6 1004.4 0.0
07/05:30pm 36.6 38.0 18.6 34 11.9 N 9 13 5 7 1004.4 1004.2 0.0
07/05:00pm 37.3 39.5 19.3 35 12.0 NE 6 13 3 7 1004.3 1004.1 0.0
07/04:30pm 37.3 38.8 18.8 33 12.3 NE 9 13 5 7 1004.4 1004.2 0.0

Other Formats:

Comma delimited format used in spreadsheet applications
http://www.bom.gov.au/fwo/IDD60801/IDD60801.94137.axf

JavaScript Object Notation format (JSON) in row-major order
http://www.bom.gov.au/fwo/IDD60801/IDD60801.94137.json